Time;durP1;ratioP1;P1;durP2;ratioP2;P2;SDS_P1;SDS_P2;PMS_P1;PMS_P2;Temp;Humidity;BMP_temperature;BMP_pressure;BME280_temperature;BME280_humidity;BME280_pressure;Samples;Min_cycle;Max_cycle;Signal;HPM_P1;HPM_P2
2021/05/29 00:00:54;;;;;;;1178.05;999.90;;;;;;;18.79;44.61;100963.50;4975520;28;20022;-55
2021/05/29 00:03:22;;;;;;;1178.95;999.90;;;;;;;18.79;44.76;100965.38;4975608;28;20031;-52
2021/05/29 00:05:48;;;;;;;1174.00;999.90;;;;;;;18.79;44.65;100974.38;4974967;28;20054;-55
2021/05/29 00:08:14;;;;;;;1183.47;999.90;;;;;;;18.79;44.52;100968.09;4975355;28;20041;-52
2021/05/29 00:10:44;;;;;;;1163.05;999.90;;;;;;;18.78;44.61;100972.69;4975729;28;20502;-57
2021/05/29 00:13:11;;;;;;;1171.38;999.90;;;;;;;18.77;44.53;100967.44;4975807;28;20031;-57
2021/05/29 00:15:39;;;;;;;1161.90;999.90;;;;;;;18.77;44.56;100972.88;4975167;28;20491;-61
2021/05/29 00:18:06;;;;;;;1163.03;999.90;;;;;;;18.77;44.65;100967.44;4975342;28;20035;-57
2021/05/29 00:20:32;;;;;;;1174.25;999.90;;;;;;;18.77;44.50;100970.16;4975701;28;20053;-59
2021/05/29 00:22:58;;;;;;;1171.60;999.90;;;;;;;18.75;44.49;100970.34;4974890;28;20423;-58
2021/05/29 00:25:24;;;;;;;1169.18;999.90;;;;;;;18.75;44.49;100973.06;4989498;28;20271;-57
2021/05/29 00:27:49;;;;;;;1158.47;999.90;;;;;;;18.74;44.47;100970.50;4975210;28;20026;-61
2021/05/29 00:30:16;;;;;;;1169.82;999.90;;;;;;;18.75;44.57;100972.19;4957534;28;20042;-58
2021/05/29 00:32:42;;;;;;;1167.13;999.90;;;;;;;18.74;44.62;100979.53;4955128;29;20391;-65
2021/05/29 00:35:08;;;;;;;1157.53;999.90;;;;;;;18.73;44.51;100975.09;4971556;28;20041;-60
2021/05/29 00:37:35;;;;;;;1149.00;999.90;;;;;;;18.73;44.66;100972.38;4962686;28;20627;-59
2021/05/29 00:40:04;;;;;;;1158.43;999.90;;;;;;;18.73;44.70;100974.25;4955609;29;20108;-57
2021/05/29 00:42:29;;;;;;;1169.85;999.90;;;;;;;18.72;44.59;100970.69;4955708;29;20035;-59
2021/05/29 00:45:00;;;;;;;1156.07;999.90;;;;;;;18.71;44.39;100974.44;4955559;29;20030;-54
2021/05/29 00:47:28;;;;;;;1163.82;999.90;;;;;;;18.70;44.51;100976.28;4955064;29;20038;-63
2021/05/29 00:49:55;;;;;;;1167.68;999.90;;;;;;;18.70;44.39;100980.88;4955627;28;20041;-62
2021/05/29 00:52:23;;;;;;;1161.88;999.90;;;;;;;18.70;44.38;100984.44;4955267;29;20034;-54
2021/05/29 00:54:49;;;;;;;1158.78;999.90;;;;;;;18.70;44.42;100979.00;4955501;29;20027;-59
2021/05/29 00:57:16;;;;;;;1167.95;999.90;;;;;;;18.69;44.38;100984.63;4956309;28;20401;-58
2021/05/29 00:59:42;;;;;;;1165.32;999.90;;;;;;;18.69;44.48;100987.34;4960938;28;20038;-57
2021/05/29 01:02:12;;;;;;;1162.88;999.90;;;;;;;18.68;44.39;100986.50;4955055;28;20472;-55
2021/05/29 01:04:38;;;;;;;1162.88;999.90;;;;;;;18.68;44.69;100988.38;4955029;29;20101;-57
2021/05/29 01:07:10;;;;;;;1176.47;999.90;;;;;;;18.68;44.55;100993.81;4954257;28;20407;-61
2021/05/29 01:09:37;;;;;;;1173.78;999.90;;;;;;;18.68;44.49;100991.94;4955097;29;20039;-58
2021/05/29 01:12:05;;;;;;;1177.75;999.90;;;;;;;18.67;44.52;100994.84;4954968;29;20055;-58
2021/05/29 01:14:31;;;;;;;1164.28;999.90;;;;;;;18.67;44.53;100989.41;4955180;28;20499;-57
2021/05/29 01:16:58;;;;;;;;;;;;;;;18.65;44.44;100995.03;4955101;28;20058;-57
2021/05/29 01:19:24;;;;;;;1152.05;999.90;;;;;;;18.66;44.60;100991.28;4955124;29;19911;-54
2021/05/29 01:21:51;;;;;;;1156.38;999.90;;;;;;;18.65;44.43;100986.03;4954634;29;20472;-63
2021/05/29 01:24:18;;;;;;;1166.18;999.90;;;;;;;18.64;44.54;100998.78;4954644;29;20038;-61
2021/05/29 01:26:44;;;;;;;1160.85;999.90;;;;;;;18.63;44.21;100991.59;4954849;29;20035;-59
2021/05/29 01:29:10;;;;;;;1177.75;999.90;;;;;;;18.63;44.39;100988.88;4969497;28;20027;-58
2021/05/29 01:31:36;;;;;;;1168.85;999.90;;;;;;;18.63;44.49;100994.31;4967011;28;20046;-54
2021/05/29 01:34:02;;;;;;;1164.75;999.90;;;;;;;18.63;44.29;100990.75;4974192;28;20031;-57
2021/05/29 01:36:29;;;;;;;1162.10;999.90;;;;;;;18.63;44.51;100996.19;4974068;28;20395;-56
2021/05/29 01:38:55;;;;;;;1166.75;999.90;;;;;;;18.62;44.13;100989.91;4973677;28;20038;-54
2021/05/29 01:41:22;;;;;;;1153.05;999.90;;;;;;;18.63;44.61;100988.88;4973900;28;20046;-56
2021/05/29 01:43:51;;;;;;;1163.78;999.90;;;;;;;18.63;44.47;100988.88;4973479;28;20035;-52
2021/05/29 01:46:21;;;;;;;1154.80;999.90;;;;;;;18.63;44.32;100990.75;4973507;28;20031;-55
2021/05/29 01:48:48;;;;;;;1157.90;999.90;;;;;;;18.61;44.39;100981.94;4973791;28;20069;-53
2021/05/29 01:51:16;;;;;;;1158.80;999.90;;;;;;;18.61;44.44;100988.22;4973832;28;20057;-60
2021/05/29 01:53:43;;;;;;;1153.80;999.90;;;;;;;18.61;44.26;100981.94;4973678;28;20022;-58
2021/05/29 01:56:10;;;;;;;1154.35;999.90;;;;;;;18.62;44.33;100989.06;4973556;28;20045;-57
2021/05/29 01:58:38;;;;;;;1156.80;999.90;;;;;;;18.61;44.39;100982.78;4973026;28;20046;-53
2021/05/29 02:01:08;;;;;;;1166.32;999.90;;;;;;;18.60;44.24;100981.09;4973242;28;20511;-59
2021/05/29 02:03:36;;;;;;;1162.47;999.90;;;;;;;18.59;44.44;100984.00;4973667;28;20050;-55
2021/05/29 02:06:03;;;;;;;1157.20;999.90;;;;;;;18.59;44.51;100986.72;4971017;28;20053;-58
2021/05/29 02:08:29;;;;;;;1162.80;999.90;;;;;;;18.59;44.16;100981.28;4972778;28;20039;-58
2021/05/29 02:10:55;;;;;;;1172.50;999.90;;;;;;;18.59;44.38;100978.56;4973545;28;20038;-52
2021/05/29 02:13:28;;;;;;;1159.40;999.90;;;;;;;18.58;44.43;100983.13;4972850;28;20118;-54
2021/05/29 02:15:54;;;;;;;1151.60;999.90;;;;;;;18.59;44.15;100978.56;4968920;28;20031;-55
2021/05/29 02:18:20;;;;;;;1159.70;999.90;;;;;;;18.58;44.17;100979.56;4954371;28;20038;-62
2021/05/29 02:20:59;;;;;;;1163.50;999.90;;;;;;;18.57;44.49;100980.59;4953899;29;20042;-57
2021/05/29 02:23:28;;;;;;;1152.63;999.90;;;;;;;18.57;44.24;100972.44;4953662;28;20038;-57
2021/05/29 02:25:57;;;;;;;1152.45;999.90;;;;;;;18.57;44.31;100980.59;4953522;29;20063;-55
2021/05/29 02:28:24;;;;;;;1151.63;999.90;;;;;;;18.56;44.49;100979.75;4953490;29;20035;-55
2021/05/29 02:30:50;;;;;;;;;;;;;;;18.56;44.43;100978.91;4954131;29;20031;-52
2021/05/29 02:33:17;;;;;;;1151.68;999.90;;;;;;;18.57;44.23;100977.88;4953256;29;19921;-55
2021/05/29 02:35:43;;;;;;;1158.63;999.90;;;;;;;18.55;44.17;100986.22;4953022;28;20047;-55
2021/05/29 02:38:10;;;;;;;1167.20;999.90;;;;;;;18.56;44.45;100976.19;4953315;28;20411;-52
2021/05/29 02:40:36;;;;;;;1158.43;999.90;;;;;;;18.55;44.27;100977.22;4953078;28;20031;-54
2021/05/29 02:43:02;;;;;;;1166.22;999.90;;;;;;;18.55;44.56;100975.34;4967687;28;20038;-53
2021/05/29 02:45:29;;;;;;;1160.85;999.90;;;;;;;18.55;44.42;100982.63;4952937;29;20035;-57
2021/05/29 02:47:55;;;;;;;;;;;;;;;18.54;44.54;100987.22;4954208;29;20031;-58
2021/05/29 02:50:22;;;;;;;1150.88;999.90;;;;;;;18.54;44.33;100980.94;4953463;29;20437;-56
2021/05/29 02:52:48;;;;;;;1153.43;999.90;;;;;;;18.53;44.38;100981.97;4952926;29;20043;-54
2021/05/29 02:55:21;;;;;;;1162.72;999.90;;;;;;;18.54;44.27;100980.94;4953730;29;20090;-56
2021/05/29 02:57:49;;;;;;;1149.72;999.90;;;;;;;18.52;44.34;100981.13;4958343;28;20034;-61
2021/05/29 03:00:16;;;;;;;1152.50;999.90;;;;;;;18.52;44.40;100988.44;4953852;28;20046;-56
2021/05/29 03:02:42;;;;;;;1151.38;999.90;;;;;;;18.52;44.30;100991.16;4952727;28;20494;-60
2021/05/29 03:05:08;;;;;;;1152.63;999.90;;;;;;;18.52;44.50;100996.59;4952965;29;20035;-57
2021/05/29 03:07:34;;;;;;;;;;;;;;;18.51;44.54;100990.31;4953414;29;20042;-54
2021/05/29 03:10:02;;;;;;;1148.55;999.90;;;;;;;18.53;44.38;101003.72;4952970;29;19910;-54
2021/05/29 03:12:28;;;;;;;1151.20;999.90;;;;;;;18.51;44.38;100998.47;4952617;28;20047;-58
2021/05/29 03:14:53;;;;;;;1159.15;999.90;;;;;;;18.53;44.58;101006.44;4964073;28;20100;-61
2021/05/29 03:17:19;;;;;;;1150.97;999.90;;;;;;;18.52;44.33;101010.19;4972400;28;20398;-58
2021/05/29 03:19:45;;;;;;;1151.25;999.90;;;;;;;18.50;44.36;100999.50;4971937;28;20035;-54
2021/05/29 03:22:11;;;;;;;1151.10;999.90;;;;;;;18.51;44.39;101016.66;4986392;28;20039;-53
2021/05/29 03:24:37;;;;;;;1148.00;999.90;;;;;;;18.50;44.39;101014.97;4970995;28;20039;-56
2021/05/29 03:27:03;;;;;;;1151.32;999.90;;;;;;;18.50;44.19;101012.25;4971882;28;20259;-56
2021/05/29 03:29:29;;;;;;;;;;;;;;;18.50;44.41;101017.69;4972359;28;20057;-56
2021/05/29 03:31:55;;;;;;;1150.85;999.90;;;;;;;18.49;44.38;101010.56;4972095;28;20366;-53
2021/05/29 03:34:21;;;;;;;1153.07;999.90;;;;;;;18.50;44.36;101021.25;4971947;28;20041;-59
2021/05/29 03:36:47;;;;;;;1149.10;999.90;;;;;;;18.49;44.19;101022.28;4972129;28;20045;-57
2021/05/29 03:39:13;;;;;;;1152.03;999.90;;;;;;;18.47;44.60;101028.88;4971863;28;20414;-59
2021/05/29 03:41:39;;;;;;;1154.78;999.90;;;;;;;18.46;44.40;101021.75;4970911;28;20030;-60
2021/05/29 03:44:04;;;;;;;1164.28;999.90;;;;;;;18.48;44.27;101026.00;4962881;28;20029;-58
2021/05/29 03:46:30;;;;;;;1154.57;999.90;;;;;;;18.48;44.22;101030.59;4961092;28;20053;-60
2021/05/29 03:48:56;;;;;;;1157.00;999.90;;;;;;;18.47;44.37;101026.16;4952858;29;20032;-61
2021/05/29 03:51:22;;;;;;;1165.10;999.90;;;;;;;18.47;44.21;101020.72;4952527;29;20035;-59
2021/05/29 03:53:48;;;;;;;1169.43;999.90;;;;;;;18.47;44.44;101023.44;4953091;29;20038;-59
2021/05/29 03:56:14;;;;;;;1163.78;999.90;;;;;;;18.48;44.34;101036.03;4952696;29;20062;-57
2021/05/29 03:58:40;;;;;;;1165.40;999.90;;;;;;;18.46;44.33;101028.03;4964873;28;20026;-59
2021/05/29 04:01:06;;;;;;;1154.50;999.90;;;;;;;18.46;44.29;101032.63;4963757;28;20039;-55
2021/05/29 04:03:32;;;;;;;1162.32;999.90;;;;;;;18.46;44.39;101032.63;4971505;28;20105;-56
2021/05/29 04:05:58;;;;;;;1152.70;999.90;;;;;;;18.45;44.26;101030.94;4971763;28;20037;-60
2021/05/29 04:08:23;;;;;;;1165.75;999.90;;;;;;;18.46;44.41;101032.63;4971956;28;20126;-58
2021/05/29 04:10:49;;;;;;;1169.60;999.90;;;;;;;18.46;44.38;101038.06;4971936;28;20039;-60
2021/05/29 04:13:16;;;;;;;1168.45;999.90;;;;;;;18.46;44.35;101035.34;4971544;28;20044;-60
2021/05/29 04:15:41;;;;;;;1168.90;999.90;;;;;;;18.45;44.41;101034.50;4971523;28;20498;-59
2021/05/29 04:18:07;;;;;;;1164.00;999.90;;;;;;;18.46;44.35;101040.78;4971803;28;20038;-58
2021/05/29 04:20:33;;;;;;;1161.25;999.90;;;;;;;18.45;44.40;101036.38;4971784;28;20086;-61
2021/05/29 04:22:59;;;;;;;1164.63;999.90;;;;;;;18.45;44.32;101039.94;4972062;28;20056;-60
2021/05/29 04:25:30;;;;;;;1166.40;999.90;;;;;;;18.44;44.36;101042.81;4971986;28;20041;-55
2021/05/29 04:27:57;;;;;;;1159.15;999.90;;;;;;;18.43;44.25;101041.97;4971054;28;20411;-58
2021/05/29 04:30:26;;;;;;;1169.93;999.90;;;;;;;18.43;44.34;101041.97;4971763;28;20363;-60
2021/05/29 04:32:52;;;;;;;1168.10;999.90;;;;;;;18.41;44.23;101034.00;4971744;28;20509;-59
2021/05/29 04:35:18;;;;;;;;;;;;;;;18.42;44.31;101041.13;4971958;28;20049;-61
2021/05/29 04:37:46;;;;;;;1154.28;999.90;;;;;;;18.44;44.34;101042.81;4971680;28;20290;-61
2021/05/29 04:40:14;;;;;;;1159.68;999.90;;;;;;;18.43;44.46;101041.97;4971712;28;20031;-59
2021/05/29 04:42:40;;;;;;;1157.15;999.90;;;;;;;18.42;44.37;101035.69;4972890;28;20415;-61
2021/05/29 04:45:09;;;;;;;1151.80;999.90;;;;;;;18.42;44.32;101035.69;4975738;28;20499;-59
2021/05/29 04:47:35;;;;;;;1160.70;999.90;;;;;;;18.41;44.18;101041.31;4975348;28;20035;-59
2021/05/29 04:50:01;;;;;;;1165.55;999.90;;;;;;;18.41;44.16;101039.44;4974780;28;20027;-58
2021/05/29 04:52:26;;;;;;;1159.63;999.90;;;;;;;18.42;44.23;101041.13;4975095;28;20103;-60
2021/05/29 04:54:52;;;;;;;1165.78;999.90;;;;;;;18.40;44.35;101040.47;4975520;28;20037;-57
2021/05/29 04:57:18;;;;;;;1163.25;999.90;;;;;;;18.41;44.44;101042.16;4974070;28;20022;-59
2021/05/29 04:59:44;;;;;;;1154.93;999.90;;;;;;;18.41;44.35;101046.75;4961239;28;20377;-59
2021/05/29 05:02:10;;;;;;;1154.83;999.90;;;;;;;18.41;44.34;101046.75;4972397;28;20045;-60
2021/05/29 05:04:36;;;;;;;1160.93;999.90;;;;;;;18.41;44.43;101047.59;4974711;28;20049;-57
2021/05/29 05:07:02;;;;;;;1172.65;999.90;;;;;;;18.39;44.37;101044.22;4974935;28;20031;-58
2021/05/29 05:09:28;;;;;;;;;;;;;;;18.40;44.30;101045.06;4975236;28;20038;-59
2021/05/29 05:11:54;;;;;;;1151.00;999.90;;;;;;;18.40;44.43;101051.34;4974452;28;20450;-60
2021/05/29 05:14:20;;;;;;;1151.20;999.90;;;;;;;18.40;44.48;101045.06;4974435;28;20027;-61
2021/05/29 05:16:46;;;;;;;1151.32;999.90;;;;;;;18.41;44.32;101050.31;4968660;28;20043;-60
2021/05/29 05:19:13;;;;;;;1153.82;999.90;;;;;;;18.41;44.58;101050.31;4960920;28;20121;-59
2021/05/29 05:21:38;;;;;;;1157.47;999.90;;;;;;;18.42;44.52;101052.00;4969598;28;20031;-60
2021/05/29 05:24:05;;;;;;;1161.00;999.90;;;;;;;18.41;44.26;101047.59;4962567;28;20031;-59
2021/05/29 05:26:31;;;;;;;1160.63;999.90;;;;;;;18.41;44.37;101044.03;4969658;28;20034;-57
2021/05/29 05:28:58;;;;;;;1153.40;999.90;;;;;;;18.41;44.47;101044.03;4955241;29;20055;-58
2021/05/29 05:31:24;;;;;;;1155.50;999.90;;;;;;;18.41;44.33;101052.19;4955021;29;20027;-55
2021/05/29 05:33:51;;;;;;;1154.40;999.90;;;;;;;18.41;44.54;101053.03;4954627;28;20039;-59
2021/05/29 05:36:17;;;;;;;1153.32;999.90;;;;;;;18.42;44.39;101049.28;4954787;28;20511;-61
2021/05/29 05:38:47;;;;;;;1160.45;999.90;;;;;;;18.43;44.37;101063.72;4953422;29;20043;-60
2021/05/29 05:41:14;;;;;;;1163.45;999.90;;;;;;;18.43;44.31;101058.28;4954225;28;20443;-59
2021/05/29 05:43:40;;;;;;;1158.97;999.90;;;;;;;18.45;44.74;101060.81;4954417;28;20035;-59
2021/05/29 05:46:07;;;;;;;1151.22;999.90;;;;;;;18.45;44.29;101052.69;4954858;29;20031;-58
2021/05/29 05:48:33;;;;;;;1161.30;999.90;;;;;;;18.47;44.58;101067.81;4954598;28;20065;-60
2021/05/29 05:51:00;;;;;;;1165.68;999.90;;;;;;;18.48;44.64;101060.50;4954967;29;20476;-57
2021/05/29 05:53:28;;;;;;;1161.45;999.90;;;;;;;18.48;44.47;101068.66;4953906;28;20043;-58
2021/05/29 05:56:01;;;;;;;1155.10;999.90;;;;;;;18.49;44.53;101064.91;4954385;29;20031;-59
2021/05/29 05:58:29;;;;;;;1153.70;999.90;;;;;;;18.50;44.48;101074.75;4965165;28;20034;-59
2021/05/29 06:00:55;;;;;;;1153.88;999.90;;;;;;;18.50;44.65;101077.47;4973520;28;20051;-58
2021/05/29 06:03:22;;;;;;;1158.93;999.90;;;;;;;18.50;44.45;101086.47;4973644;28;20501;-58
2021/05/29 06:05:48;;;;;;;1152.18;999.90;;;;;;;18.50;44.59;101078.31;4973768;28;20034;-58
2021/05/29 06:08:15;;;;;;;;;;;;;;;18.50;44.50;101089.19;4973502;28;20499;-58
2021/05/29 06:10:41;;;;;;;1149.80;999.90;;;;;;;18.50;44.49;101085.63;4973661;28;19910;-59
2021/05/29 06:13:11;;;;;;;1148.13;999.90;;;;;;;18.56;44.42;101095.78;4973396;28;20034;-51
2021/05/29 06:19:03;;;;;;;1153.25;999.90;;;;;;;18.63;44.45;101094.06;4974790;28;20038;-52
2021/05/29 06:21:22;;;;;;;1149.30;999.90;;;;;;;18.62;44.16;101098.66;4973792;28;20038;-50
2021/05/29 06:23:48;;;;;;;1151.38;999.90;;;;;;;18.65;44.61;101100.22;4973439;28;20043;-54
2021/05/29 06:26:14;;;;;;;1155.15;999.90;;;;;;;18.65;44.57;101105.66;4973112;28;20035;-53
2021/05/29 06:28:39;;;;;;;1158.33;999.90;;;;;;;18.72;44.03;101108.53;4964941;28;20398;-55
2021/05/29 06:31:05;;;;;;;1164.82;999.90;;;;;;;18.75;44.43;101114.44;4965659;28;20034;-57
2021/05/29 06:33:31;;;;;;;1160.45;999.90;;;;;;;18.77;44.57;101109.69;4964723;28;20073;-55
2021/05/29 06:35:57;;;;;;;1148.82;999.90;;;;;;;18.76;44.55;101113.41;4971191;28;20336;-57
2021/05/29 06:38:23;;;;;;;1155.03;999.90;;;;;;;18.75;44.62;101121.75;4973445;28;20043;-57
2021/05/29 06:40:50;;;;;;;1161.55;999.90;;;;;;;18.75;44.49;101117.16;4973142;28;20033;-54
2021/05/29 06:43:16;;;;;;;1154.25;999.90;;;;;;;18.73;44.33;101119.22;4987032;28;20030;-57
2021/05/29 06:45:42;;;;;;;1166.40;999.90;;;;;;;18.72;44.09;101128.41;4972757;28;20034;-54
2021/05/29 06:48:10;;;;;;;1155.80;999.90;;;;;;;18.72;44.18;101125.69;4964621;28;20373;-54
2021/05/29 06:50:36;;;;;;;1155.50;999.90;;;;;;;18.74;44.13;101123.63;4973639;28;20039;-56
2021/05/29 06:53:05;;;;;;;1174.20;999.90;;;;;;;18.76;43.92;101126.16;4973011;28;20523;-55
2021/05/29 07:01:00;;;;;;;1161.53;999.90;;;;;;;18.73;44.06;101132.81;4976766;28;20292;-56
2021/05/29 07:03:26;;;;;;;1166.25;999.90;;;;;;;18.73;44.26;101132.81;4964591;28;20337;-58
2021/05/29 07:05:52;;;;;;;1164.32;999.90;;;;;;;18.66;44.29;101134.53;4962231;28;20029;-59
2021/05/29 07:08:18;;;;;;;1177.00;999.90;;;;;;;18.62;44.66;101136.72;4955711;28;20047;-58
2021/05/29 07:10:44;;;;;;;1161.93;999.90;;;;;;;18.66;44.53;101139.97;4972363;28;20407;-56
2021/05/29 07:13:09;;;;;;;1164.50;999.90;;;;;;;18.67;44.54;101144.38;4972473;28;20042;-55
2021/05/29 07:15:38;;;;;;;1172.63;999.90;;;;;;;18.43;44.06;101145.25;4972658;28;20041;-56
2021/05/29 07:18:11;;;;;;;1169.13;999.90;;;;;;;18.21;44.77;101138.69;4963839;28;20243;-58
2021/05/29 07:20:38;;;;;;;1168.18;999.90;;;;;;;18.31;44.74;101144.78;4971141;28;20035;-57
2021/05/29 07:23:06;;;;;;;1173.60;999.90;;;;;;;18.44;44.39;101149.69;4961866;28;20065;-58
2021/05/29 07:25:32;;;;;;;1162.82;999.90;;;;;;;18.51;44.48;101156.13;4970673;28;20038;-54
2021/05/29 07:27:59;;;;;;;1173.53;999.90;;;;;;;18.55;44.51;101156.63;4957031;28;20049;-53
2021/05/29 07:30:25;;;;;;;1169.22;999.90;;;;;;;18.60;44.31;101160.53;4953948;28;20051;-61
2021/05/29 07:32:52;;;;;;;1166.32;999.90;;;;;;;18.63;44.36;101162.03;4971795;28;20049;-59
2021/05/29 07:35:18;;;;;;;1166.15;999.90;;;;;;;18.67;44.61;101166.13;4972542;28;20050;-60
2021/05/29 07:37:43;;;;;;;;;;;;;;;18.67;44.13;101168.84;4964746;28;20040;-62
2021/05/29 07:40:09;;;;;;;1158.28;999.90;;;;;;;18.66;44.15;101178.03;4953099;29;19914;-60
2021/05/29 07:42:36;;;;;;;1166.40;999.90;;;;;;;18.69;44.30;101170.38;4954093;28;20515;-59
2021/05/29 07:45:04;;;;;;;1168.53;999.90;;;;;;;18.70;44.22;101166.63;4972428;28;20488;-58
2021/05/29 07:47:30;;;;;;;1169.65;999.90;;;;;;;18.70;43.91;101182.09;4972236;28;20042;-59
2021/05/29 07:49:56;;;;;;;1174.18;999.90;;;;;;;18.72;44.42;101185.50;4972134;28;20128;-59
2021/05/29 07:52:22;;;;;;;1174.75;999.90;;;;;;;18.71;44.29;101183.81;4972613;28;20475;-58
2021/05/29 07:54:48;;;;;;;1176.53;999.90;;;;;;;18.71;44.28;101178.38;4972453;28;20035;-58
2021/05/29 07:57:14;;;;;;;;;;;;;;;18.73;44.39;101180.91;4972806;28;20037;-59
2021/05/29 07:59:42;;;;;;;1149.72;999.90;;;;;;;18.73;44.31;101184.47;4962355;28;19914;-56
2021/05/29 08:02:09;;;;;;;1169.95;999.90;;;;;;;18.73;44.48;101176.31;4956005;28;20047;-60
2021/05/29 08:04:35;;;;;;;1177.22;999.90;;;;;;;18.74;44.48;101178.03;4972484;28;20019;-61
2021/05/29 08:07:02;;;;;;;1180.75;999.90;;;;;;;18.74;44.50;101169.00;4971340;28;20463;-58
2021/05/29 08:09:27;;;;;;;;;;;;;;;18.77;44.19;101183.09;4961345;28;20035;-60
2021/05/29 08:11:54;;;;;;;1156.28;999.90;;;;;;;18.79;44.31;101170.16;4952633;29;19921;-59
2021/05/29 08:14:20;;;;;;;1168.90;999.90;;;;;;;18.81;44.12;101168.13;4960847;28;20514;-58
2021/05/29 08:16:46;;;;;;;1170.28;999.90;;;;;;;18.83;44.37;101174.25;4974794;28;20399;-60
2021/05/29 08:19:13;;;;;;;1163.30;999.90;;;;;;;18.83;44.38;101174.25;4976064;28;20034;-59
2021/05/29 08:21:41;;;;;;;1164.72;999.90;;;;;;;18.84;44.40;101177.81;4974873;28;20034;-61
2021/05/29 08:24:07;;;;;;;1164.25;999.90;;;;;;;18.83;44.35;101187.00;4975607;28;20479;-60
2021/05/29 08:26:35;;;;;;;1174.82;999.90;;;;;;;18.84;44.36;101188.69;4976158;28;20047;-57
2021/05/29 08:29:03;;;;;;;1172.32;999.90;;;;;;;18.82;44.41;101191.56;4975744;28;20038;-58
2021/05/29 08:31:29;;;;;;;1169.45;999.90;;;;;;;18.83;44.54;101184.28;4975695;28;20038;-58
2021/05/29 08:33:55;;;;;;;1171.90;999.90;;;;;;;18.82;44.70;101188.84;4975551;28;20023;-54
2021/05/29 08:36:21;;;;;;;1169.97;999.90;;;;;;;18.87;44.35;101177.47;4970699;28;20727;-54
2021/05/29 08:38:48;;;;;;;1168.93;999.90;;;;;;;18.87;44.59;101178.31;4964956;28;20039;-57
2021/05/29 08:41:15;;;;;;;1164.80;999.90;;;;;;;18.89;44.38;101180.84;4973494;28;20042;-53
2021/05/29 08:43:42;;;;;;;1170.07;999.90;;;;;;;18.90;44.45;101179.81;4973501;28;20394;-57
2021/05/29 08:46:08;;;;;;;1169.93;999.90;;;;;;;18.94;44.31;101178.44;4972203;28;20038;-56
2021/05/29 08:48:34;;;;;;;1188.28;999.90;;;;;;;18.94;44.25;101179.31;4970789;28;20505;-54
2021/05/29 08:51:12;;;;;;;1175.97;999.90;;;;;;;18.94;44.38;101176.59;4972872;28;20038;-57
2021/05/29 08:53:57;;;;;;;1178.70;999.90;;;;;;;18.94;44.26;101183.88;4960904;28;20502;-55
2021/05/29 08:56:26;;;;;;;1167.07;999.90;;;;;;;18.96;44.27;101179.97;4969350;28;20043;-60
2021/05/29 08:58:53;;;;;;;1165.82;999.90;;;;;;;18.95;44.36;101181.00;4971997;28;20031;-60
2021/05/29 09:01:21;;;;;;;1166.38;999.90;;;;;;;18.94;44.28;101184.75;4972275;28;20045;-58
2021/05/29 09:03:53;;;;;;;1164.82;999.90;;;;;;;18.93;44.24;101191.19;4967331;28;20041;-58
2021/05/29 09:06:37;;;;;;;1173.15;999.90;;;;;;;18.85;44.37;101191.25;4965515;28;20035;-59
2021/05/29 09:09:06;;;;;;;1166.22;999.90;;;;;;;18.85;44.45;101191.25;4967105;28;20023;-54
2021/05/29 09:11:53;;;;;;;1178.18;999.90;;;;;;;18.92;44.33;101188.66;4962368;28;20051;-59
2021/05/29 09:14:25;;;;;;;1162.88;999.90;;;;;;;18.94;44.47;101189.31;4957604;28;20042;-59
2021/05/29 09:17:01;;;;;;;1176.65;999.90;;;;;;;18.97;44.26;101181.69;4968901;28;20081;-54
2021/05/29 09:19:28;;;;;;;1176.25;999.90;;;;;;;19.01;44.26;101189.47;4973389;28;20391;-57
2021/05/29 09:21:54;;;;;;;1172.88;999.90;;;;;;;19.02;43.92;101181.13;4970498;28;20042;-58
2021/05/29 09:24:20;;;;;;;1163.65;999.90;;;;;;;19.01;44.75;101184.88;4967232;28;20027;-60
2021/05/29 09:26:51;;;;;;;1163.60;999.90;;;;;;;19.02;44.72;101174.84;4971745;28;20077;-58
2021/05/29 09:29:28;;;;;;;1170.43;999.90;;;;;;;19.04;45.17;101186.41;4963708;28;20043;-55
2021/05/29 09:32:03;;;;;;;1160.47;999.90;;;;;;;19.03;44.65;101192.88;4969127;28;20534;-56
2021/05/29 09:34:37;;;;;;;1160.70;999.90;;;;;;;19.00;44.28;101188.63;4963547;28;20043;-59
2021/05/29 09:37:26;;;;;;;1160.57;999.90;;;;;;;19.01;43.89;101184.03;4953697;28;20500;-57
2021/05/29 09:39:56;;;;;;;1158.07;999.90;;;;;;;19.02;43.75;101185.72;4951878;28;20053;-61
2021/05/29 09:42:34;;;;;;;1161.78;999.90;;;;;;;19.00;43.49;101183.19;4967609;28;20043;-60
2021/05/29 09:45:27;;;;;;;1164.20;999.90;;;;;;;19.01;43.40;101193.03;4969753;28;20039;-61
2021/05/29 09:48:12;;;;;;;1162.55;999.90;;;;;;;18.99;43.59;101193.22;4962462;28;20423;-61
2021/05/29 09:51:05;;;;;;;1154.67;999.90;;;;;;;18.98;43.30;101191.53;4964410;28;20037;-61
2021/05/29 09:53:34;;;;;;;1167.72;999.90;;;;;;;18.98;43.39;101191.53;4968942;28;20403;-61
2021/05/29 09:56:01;;;;;;;1165.13;999.90;;;;;;;18.98;43.72;101186.09;4971493;28;20048;-61
2021/05/29 09:58:48;;;;;;;1170.97;999.90;;;;;;;18.99;44.08;101193.22;4969469;28;20042;-62
2021/05/29 10:01:53;;;;;;;1164.30;999.90;;;;;;;18.99;43.69;101185.06;4969329;28;20018;-61
2021/05/29 10:04:21;;;;;;;1159.25;999.90;;;;;;;19.01;43.94;101184.88;4969555;28;20054;-60
2021/05/29 10:06:55;;;;;;;1150.72;999.90;;;;;;;19.00;43.77;101188.63;4961477;28;20035;-61
2021/05/29 10:09:21;;;;;;;1163.13;999.90;;;;;;;19.01;44.01;101187.59;4971077;28;20446;-60
2021/05/29 10:11:48;;;;;;;1172.60;999.90;;;;;;;19.02;44.26;101189.28;4970958;28;20038;-62
2021/05/29 10:14:14;;;;;;;1177.30;999.90;;;;;;;19.02;44.23;101191.16;4962225;28;20054;-60
2021/05/29 10:16:40;;;;;;;1165.28;999.90;;;;;;;19.04;43.91;101189.13;4971575;28;20046;-61
2021/05/29 10:19:08;;;;;;;1159.80;999.90;;;;;;;19.05;43.93;101190.81;4971330;28;20027;-60
2021/05/29 10:21:36;;;;;;;1170.55;999.90;;;;;;;19.06;43.77;101189.78;4970607;28;20046;-59
2021/05/29 10:24:04;;;;;;;1170.32;999.90;;;;;;;19.09;43.88;101187.59;4969600;28;20043;-58
2021/05/29 10:26:31;;;;;;;1171.22;999.90;;;;;;;19.09;43.53;101194.91;4960426;28;20039;-59
2021/05/29 10:28:58;;;;;;;1180.18;999.90;;;;;;;19.04;43.47;101195.41;4952322;28;20050;-57
2021/05/29 10:31:28;;;;;;;;;;;;;;;18.96;43.58;101188.16;4961399;28;20403;-57
2021/05/29 10:33:53;;;;;;;1159.53;999.90;;;;;;;18.91;43.86;101195.13;4960629;28;20079;-58
2021/05/29 10:36:44;;;;;;;1176.60;999.90;;;;;;;18.91;43.70;101201.41;4972268;28;20034;-58
2021/05/29 10:39:20;;;;;;;1170.50;999.90;;;;;;;18.94;43.55;101190.19;4971147;28;20039;-60
2021/05/29 10:41:59;;;;;;;1178.90;999.90;;;;;;;18.90;43.70;101194.28;4973032;28;20034;-58
2021/05/29 10:44:43;;;;;;;1168.45;999.90;;;;;;;18.94;43.30;101190.19;4972421;28;20038;-60
2021/05/29 10:47:15;;;;;;;1165.25;999.90;;;;;;;19.00;43.40;101188.63;4972615;28;20530;-59
2021/05/29 10:49:47;;;;;;;1176.95;999.90;;;;;;;19.02;43.15;101185.72;4972121;28;20038;-60
2021/05/29 10:52:48;;;;;;;1176.18;999.90;;;;;;;18.95;42.95;101193.75;4972596;28;20042;-55
2021/05/29 10:55:13;;;;;;;1174.80;999.90;;;;;;;18.98;43.04;101186.09;4967567;28;20479;-57
2021/05/29 10:58:01;;;;;;;1173.93;999.90;;;;;;;19.01;42.98;101184.03;4970630;28;20046;-53
2021/05/29 11:00:40;;;;;;;1178.97;999.90;;;;;;;18.98;42.90;101191.53;4962608;28;20051;-60
2021/05/29 11:03:18;;;;;;;1178.60;999.90;;;;;;;18.91;42.67;101195.13;4952865;28;20051;-61
2021/05/29 11:05:46;;;;;;;1177.70;999.90;;;;;;;18.90;43.02;101188.84;4952153;28;20035;-59